Airfield :
LOGIN :

Register | Disclaimer

   EN    FR    IT 

 










Legend :    VFR   Marginal VFR   IFR   Intensive IFR   Very Intensive IFR
Visi :
Ceiling :
>= 8 km
>= 3000ft
5 to 8 km
1000 to 3000 ft
1500m to 5 km
500 to 1000 ft
800 to 1500m
200 to 500 ft
< 800m
< 200 ft
Symbols :   Thunderstorms  Fog  Heavy snow  Heavy precipitations  Wind > 20 kt
SIGMETs :     Misc.  Thunderstorms  Icing  Turbulence  Mountain Waves  Volcanic Ashes






- Airport Elevation : 59 ft
- IATA code : TSF


LIPH - Treviso

CURRENT METAR :
  • 241050Z 22005KT 7000 BKN020 17/15 Q1016

EXPIRED METARs :
  • 241020Z 23005KT 7000 BKN015 17/15 Q1016
  • 240950Z 23004KT 190V250 7000 BKN015 17/15 Q1016
  • 240920Z VRB02KT 7000 SCT010 17/15 Q1016
  • 240850Z 27003KT 6000 BKN010 16/15 Q1016
  • 240820Z 29003KT 250V320 5000 BR BKN010 16/15 Q1016

TAF TAF LIPH
Valid from the 24 at 06:00 until the 25 at 06:00 UTC


240500Z 2406/2506 VRB05KT 2000 BR BKN010
BECMG 2406/2408 6000 BKN020
TEMPO 2412/2418 TSRA
BECMG 2421/2423 2000 BR
TEMPO 2501/2506 0400 FG BKN008



MET'MAP, your aeronautical weather chart ! - Copyright ORBIFLY December 2007 - Disclaimer

ORBIFLY MET'MAP TEAM :

Programming & Development : Alexandra Zaïnal
Concept & original design : Baudouin d'Aumeries
Assistance for programming : Marc-Olivier Méhu
Technical & hardware support : Manuel Goepfert

Contact : metmap@orbifly.com




SOURCES & CREDITS :

   NOAA